sensor_id;sensor_type;location;lat;lon;timestamp;P1;durP1;ratioP1;P2;durP2;ratioP2
75620;SDS011;64574;48.506;-2.750;2023-05-07T00:00:26;2.35;;;0.88;;
75620;SDS011;64574;48.506;-2.750;2023-05-07T00:02:52;1.33;;;0.70;;
75620;SDS011;64574;48.506;-2.750;2023-05-07T00:05:17;1.10;;;0.60;;
75620;SDS011;64574;48.506;-2.750;2023-05-07T00:07:44;1.85;;;0.80;;
75620;SDS011;64574;48.506;-2.750;2023-05-07T00:10:10;1.17;;;0.70;;
75620;SDS011;64574;48.506;-2.750;2023-05-07T00:12:37;1.50;;;0.80;;
75620;SDS011;64574;48.506;-2.750;2023-05-07T00:15:03;1.77;;;1.15;;
75620;SDS011;64574;48.506;-2.750;2023-05-07T00:17:29;1.70;;;0.70;;
75620;SDS011;64574;48.506;-2.750;2023-05-07T00:19:55;1.48;;;0.70;;
75620;SDS011;64574;48.506;-2.750;2023-05-07T00:22:21;1.48;;;0.70;;
75620;SDS011;64574;48.506;-2.750;2023-05-07T00:24:46;3.50;;;1.00;;
75620;SDS011;64574;48.506;-2.750;2023-05-07T00:27:12;1.55;;;0.90;;
75620;SDS011;64574;48.506;-2.750;2023-05-07T00:29:38;1.98;;;0.90;;
75620;SDS011;64574;48.506;-2.750;2023-05-07T00:32:04;2.40;;;0.80;;
75620;SDS011;64574;48.506;-2.750;2023-05-07T00:34:30;1.90;;;0.88;;
75620;SDS011;64574;48.506;-2.750;2023-05-07T00:36:55;1.50;;;0.85;;
75620;SDS011;64574;48.506;-2.750;2023-05-07T00:39:21;1.80;;;1.00;;
75620;SDS011;64574;48.506;-2.750;2023-05-07T00:41:46;1.42;;;0.70;;
75620;SDS011;64574;48.506;-2.750;2023-05-07T00:44:12;2.13;;;0.95;;
75620;SDS011;64574;48.506;-2.750;2023-05-07T00:46:39;2.17;;;1.00;;
75620;SDS011;64574;48.506;-2.750;2023-05-07T00:49:05;2.35;;;1.23;;
75620;SDS011;64574;48.506;-2.750;2023-05-07T00:51:31;2.67;;;1.02;;
75620;SDS011;64574;48.506;-2.750;2023-05-07T00:53:57;2.13;;;1.13;;
75620;SDS011;64574;48.506;-2.750;2023-05-07T00:56:24;2.83;;;1.10;;
75620;SDS011;64574;48.506;-2.750;2023-05-07T00:58:50;2.30;;;1.00;;
75620;SDS011;64574;48.506;-2.750;2023-05-07T01:01:16;2.08;;;1.25;;
75620;SDS011;64574;48.506;-2.750;2023-05-07T01:03:41;2.20;;;1.00;;
75620;SDS011;64574;48.506;-2.750;2023-05-07T01:06:07;3.38;;;1.20;;
75620;SDS011;64574;48.506;-2.750;2023-05-07T01:08:37;1.58;;;1.00;;
75620;SDS011;64574;48.506;-2.750;2023-05-07T01:11:04;2.95;;;1.30;;
75620;SDS011;64574;48.506;-2.750;2023-05-07T01:13:31;3.00;;;1.08;;
75620;SDS011;64574;48.506;-2.750;2023-05-07T01:15:58;2.42;;;1.05;;
75620;SDS011;64574;48.506;-2.750;2023-05-07T01:18:23;3.97;;;1.73;;
75620;SDS011;64574;48.506;-2.750;2023-05-07T01:20:51;4.65;;;1.92;;
75620;SDS011;64574;48.506;-2.750;2023-05-07T01:23:17;3.53;;;2.00;;
75620;SDS011;64574;48.506;-2.750;2023-05-07T01:25:43;6.50;;;3.53;;
75620;SDS011;64574;48.506;-2.750;2023-05-07T01:28:19;6.53;;;2.83;;
75620;SDS011;64574;48.506;-2.750;2023-05-07T01:30:50;6.18;;;2.88;;
75620;SDS011;64574;48.506;-2.750;2023-05-07T01:33:21;5.68;;;2.80;;
75620;SDS011;64574;48.506;-2.750;2023-05-07T01:35:49;6.03;;;2.53;;
75620;SDS011;64574;48.506;-2.750;2023-05-07T01:38:18;6.82;;;2.60;;
75620;SDS011;64574;48.506;-2.750;2023-05-07T01:40:44;7.57;;;3.30;;
75620;SDS011;64574;48.506;-2.750;2023-05-07T01:43:10;5.95;;;3.22;;
75620;SDS011;64574;48.506;-2.750;2023-05-07T01:45:36;8.02;;;4.43;;
75620;SDS011;64574;48.506;-2.750;2023-05-07T01:48:03;7.25;;;3.50;;
75620;SDS011;64574;48.506;-2.750;2023-05-07T01:50:29;8.30;;;3.85;;
75620;SDS011;64574;48.506;-2.750;2023-05-07T01:52:56;8.75;;;3.78;;
75620;SDS011;64574;48.506;-2.750;2023-05-07T01:55:22;8.25;;;4.10;;
75620;SDS011;64574;48.506;-2.750;2023-05-07T01:57:48;10.18;;;4.72;;
75620;SDS011;64574;48.506;-2.750;2023-05-07T02:00:14;10.40;;;5.05;;
75620;SDS011;64574;48.506;-2.750;2023-05-07T02:02:40;14.30;;;6.13;;
75620;SDS011;64574;48.506;-2.750;2023-05-07T02:05:05;26.92;;;10.70;;
75620;SDS011;64574;48.506;-2.750;2023-05-07T02:07:31;29.33;;;12.65;;
75620;SDS011;64574;48.506;-2.750;2023-05-07T02:09:57;29.95;;;13.35;;
75620;SDS011;64574;48.506;-2.750;2023-05-07T02:12:23;27.65;;;12.75;;
75620;SDS011;64574;48.506;-2.750;2023-05-07T02:14:49;27.40;;;12.80;;
75620;SDS011;64574;48.506;-2.750;2023-05-07T02:17:14;35.03;;;15.48;;
75620;SDS011;64574;48.506;-2.750;2023-05-07T02:19:40;31.85;;;15.38;;
75620;SDS011;64574;48.506;-2.750;2023-05-07T02:22:06;36.00;;;15.73;;
75620;SDS011;64574;48.506;-2.750;2023-05-07T02:24:32;29.13;;;14.75;;
75620;SDS011;64574;48.506;-2.750;2023-05-07T02:26:58;16.00;;;7.45;;
75620;SDS011;64574;48.506;-2.750;2023-05-07T02:29:24;16.02;;;7.18;;
75620;SDS011;64574;48.506;-2.750;2023-05-07T02:31:49;15.80;;;7.57;;
75620;SDS011;64574;48.506;-2.750;2023-05-07T02:34:17;13.70;;;6.60;;
75620;SDS011;64574;48.506;-2.750;2023-05-07T02:36:43;15.55;;;7.57;;
75620;SDS011;64574;48.506;-2.750;2023-05-07T02:39:09;16.02;;;7.72;;
75620;SDS011;64574;48.506;-2.750;2023-05-07T02:41:35;13.63;;;6.20;;
75620;SDS011;64574;48.506;-2.750;2023-05-07T02:44:00;15.95;;;7.38;;
75620;SDS011;64574;48.506;-2.750;2023-05-07T02:46:26;13.07;;;5.63;;
75620;SDS011;64574;48.506;-2.750;2023-05-07T02:48:51;10.27;;;5.47;;
75620;SDS011;64574;48.506;-2.750;2023-05-07T02:51:19;11.13;;;4.90;;
75620;SDS011;64574;48.506;-2.750;2023-05-07T02:53:46;10.68;;;5.32;;
75620;SDS011;64574;48.506;-2.750;2023-05-07T02:56:12;9.68;;;4.78;;
75620;SDS011;64574;48.506;-2.750;2023-05-07T02:58:37;7.80;;;4.00;;
75620;SDS011;64574;48.506;-2.750;2023-05-07T03:01:07;10.90;;;4.10;;
75620;SDS011;64574;48.506;-2.750;2023-05-07T03:03:33;7.55;;;4.10;;
75620;SDS011;64574;48.506;-2.750;2023-05-07T03:06:00;8.57;;;4.20;;
75620;SDS011;64574;48.506;-2.750;2023-05-07T03:08:25;7.55;;;4.05;;
75620;SDS011;64574;48.506;-2.750;2023-05-07T03:10:51;8.13;;;4.22;;
75620;SDS011;64574;48.506;-2.750;2023-05-07T03:13:17;8.77;;;4.07;;
75620;SDS011;64574;48.506;-2.750;2023-05-07T03:15:43;8.20;;;4.65;;
75620;SDS011;64574;48.506;-2.750;2023-05-07T03:18:08;8.65;;;3.90;;
75620;SDS011;64574;48.506;-2.750;2023-05-07T03:20:34;8.50;;;4.07;;
75620;SDS011;64574;48.506;-2.750;2023-05-07T03:23:01;9.02;;;4.32;;
75620;SDS011;64574;48.506;-2.750;2023-05-07T03:25:27;7.60;;;3.78;;
75620;SDS011;64574;48.506;-2.750;2023-05-07T03:27:53;8.80;;;4.13;;
75620;SDS011;64574;48.506;-2.750;2023-05-07T03:30:18;8.55;;;4.00;;
75620;SDS011;64574;48.506;-2.750;2023-05-07T03:32:45;6.68;;;3.20;;
75620;SDS011;64574;48.506;-2.750;2023-05-07T03:35:10;7.68;;;3.65;;
75620;SDS011;64574;48.506;-2.750;2023-05-07T03:37:37;6.32;;;3.03;;
75620;SDS011;64574;48.506;-2.750;2023-05-07T03:40:03;5.78;;;3.00;;
75620;SDS011;64574;48.506;-2.750;2023-05-07T03:42:30;6.78;;;3.10;;
75620;SDS011;64574;48.506;-2.750;2023-05-07T03:44:55;6.20;;;2.65;;
75620;SDS011;64574;48.506;-2.750;2023-05-07T03:47:21;4.95;;;2.35;;
75620;SDS011;64574;48.506;-2.750;2023-05-07T03:49:47;5.75;;;2.90;;
75620;SDS011;64574;48.506;-2.750;2023-05-07T03:52:13;6.47;;;3.03;;
75620;SDS011;64574;48.506;-2.750;2023-05-07T03:54:39;7.30;;;3.13;;
75620;SDS011;64574;48.506;-2.750;2023-05-07T03:57:05;5.50;;;2.95;;
75620;SDS011;64574;48.506;-2.750;2023-05-07T03:59:30;6.90;;;3.38;;
75620;SDS011;64574;48.506;-2.750;2023-05-07T04:01:56;10.93;;;3.97;;
75620;SDS011;64574;48.506;-2.750;2023-05-07T04:04:22;8.90;;;4.18;;
75620;SDS011;64574;48.506;-2.750;2023-05-07T04:06:47;8.45;;;4.47;;
75620;SDS011;64574;48.506;-2.750;2023-05-07T04:09:13;11.35;;;5.28;;
75620;SDS011;64574;48.506;-2.750;2023-05-07T04:11:39;9.75;;;4.93;;
75620;SDS011;64574;48.506;-2.750;2023-05-07T04:14:07;11.60;;;5.80;;
75620;SDS011;64574;48.506;-2.750;2023-05-07T04:16:34;11.10;;;5.28;;
75620;SDS011;64574;48.506;-2.750;2023-05-07T04:19:00;10.93;;;5.97;;
75620;SDS011;64574;48.506;-2.750;2023-05-07T04:21:25;11.02;;;6.10;;
75620;SDS011;64574;48.506;-2.750;2023-05-07T04:23:51;10.95;;;6.03;;
75620;SDS011;64574;48.506;-2.750;2023-05-07T04:26:17;13.13;;;6.80;;
75620;SDS011;64574;48.506;-2.750;2023-05-07T04:28:43;12.90;;;6.85;;
75620;SDS011;64574;48.506;-2.750;2023-05-07T04:31:08;13.63;;;6.65;;
75620;SDS011;64574;48.506;-2.750;2023-05-07T04:33:34;11.90;;;5.93;;
75620;SDS011;64574;48.506;-2.750;2023-05-07T04:36:02;13.45;;;6.50;;
75620;SDS011;64574;48.506;-2.750;2023-05-07T04:38:29;11.35;;;5.90;;
75620;SDS011;64574;48.506;-2.750;2023-05-07T04:40:55;10.38;;;5.30;;
75620;SDS011;64574;48.506;-2.750;2023-05-07T04:43:22;10.95;;;5.97;;
75620;SDS011;64574;48.506;-2.750;2023-05-07T04:45:49;10.57;;;5.53;;
75620;SDS011;64574;48.506;-2.750;2023-05-07T04:48:15;8.65;;;4.88;;
75620;SDS011;64574;48.506;-2.750;2023-05-07T04:50:41;9.15;;;5.03;;
75620;SDS011;64574;48.506;-2.750;2023-05-07T04:53:06;10.82;;;5.13;;
75620;SDS011;64574;48.506;-2.750;2023-05-07T04:55:32;10.40;;;5.85;;
75620;SDS011;64574;48.506;-2.750;2023-05-07T04:57:58;12.20;;;5.18;;
75620;SDS011;64574;48.506;-2.750;2023-05-07T05:00:25;11.32;;;5.20;;
75620;SDS011;64574;48.506;-2.750;2023-05-07T05:02:51;10.68;;;5.40;;
75620;SDS011;64574;48.506;-2.750;2023-05-07T05:05:16;11.80;;;5.65;;
75620;SDS011;64574;48.506;-2.750;2023-05-07T05:07:42;10.70;;;5.70;;
75620;SDS011;64574;48.506;-2.750;2023-05-07T05:10:08;11.20;;;5.63;;
75620;SDS011;64574;48.506;-2.750;2023-05-07T05:12:33;11.65;;;5.65;;
75620;SDS011;64574;48.506;-2.750;2023-05-07T05:14:59;10.68;;;5.32;;
75620;SDS011;64574;48.506;-2.750;2023-05-07T05:17:24;13.48;;;6.13;;
75620;SDS011;64574;48.506;-2.750;2023-05-07T05:19:50;13.85;;;6.63;;
75620;SDS011;64574;48.506;-2.750;2023-05-07T05:22:15;11.10;;;6.00;;
75620;SDS011;64574;48.506;-2.750;2023-05-07T05:24:41;12.73;;;6.50;;
75620;SDS011;64574;48.506;-2.750;2023-05-07T05:27:07;13.07;;;6.43;;
75620;SDS011;64574;48.506;-2.750;2023-05-07T05:29:33;10.77;;;5.57;;
75620;SDS011;64574;48.506;-2.750;2023-05-07T05:31:59;11.35;;;4.88;;
75620;SDS011;64574;48.506;-2.750;2023-05-07T05:34:24;11.55;;;4.72;;
75620;SDS011;64574;48.506;-2.750;2023-05-07T05:36:50;9.48;;;4.68;;
75620;SDS011;64574;48.506;-2.750;2023-05-07T05:39:15;11.45;;;4.75;;
75620;SDS011;64574;48.506;-2.750;2023-05-07T05:41:41;12.95;;;5.07;;
75620;SDS011;64574;48.506;-2.750;2023-05-07T05:44:07;13.80;;;4.63;;
75620;SDS011;64574;48.506;-2.750;2023-05-07T05:46:33;11.85;;;5.10;;
75620;SDS011;64574;48.506;-2.750;2023-05-07T05:48:58;11.35;;;5.03;;
75620;SDS011;64574;48.506;-2.750;2023-05-07T05:51:24;12.82;;;4.70;;
75620;SDS011;64574;48.506;-2.750;2023-05-07T05:53:51;9.85;;;3.92;;
75620;SDS011;64574;48.506;-2.750;2023-05-07T05:56:16;10.82;;;4.38;;
75620;SDS011;64574;48.506;-2.750;2023-05-07T05:58:42;10.68;;;4.00;;
75620;SDS011;64574;48.506;-2.750;2023-05-07T06:01:08;10.25;;;3.97;;
75620;SDS011;64574;48.506;-2.750;2023-05-07T06:03:34;10.90;;;4.07;;
75620;SDS011;64574;48.506;-2.750;2023-05-07T06:05:59;11.63;;;4.32;;
75620;SDS011;64574;48.506;-2.750;2023-05-07T06:08:25;10.02;;;4.13;;
75620;SDS011;64574;48.506;-2.750;2023-05-07T06:10:53;11.27;;;4.38;;
75620;SDS011;64574;48.506;-2.750;2023-05-07T06:13:19;10.65;;;4.10;;
75620;SDS011;64574;48.506;-2.750;2023-05-07T06:15:45;13.45;;;4.47;;
75620;SDS011;64574;48.506;-2.750;2023-05-07T06:18:10;8.98;;;3.60;;
75620;SDS011;64574;48.506;-2.750;2023-05-07T06:20:36;8.23;;;3.17;;
75620;SDS011;64574;48.506;-2.750;2023-05-07T06:23:02;8.40;;;3.83;;
75620;SDS011;64574;48.506;-2.750;2023-05-07T06:25:27;9.32;;;3.85;;
75620;SDS011;64574;48.506;-2.750;2023-05-07T06:27:53;8.38;;;3.53;;
75620;SDS011;64574;48.506;-2.750;2023-05-07T06:30:19;9.95;;;3.53;;
75620;SDS011;64574;48.506;-2.750;2023-05-07T06:32:44;5.50;;;2.60;;
75620;SDS011;64574;48.506;-2.750;2023-05-07T06:35:10;8.50;;;3.20;;
75620;SDS011;64574;48.506;-2.750;2023-05-07T06:37:35;6.43;;;2.83;;
75620;SDS011;64574;48.506;-2.750;2023-05-07T06:40:03;6.18;;;2.80;;
75620;SDS011;64574;48.506;-2.750;2023-05-07T06:42:30;5.65;;;3.17;;
75620;SDS011;64574;48.506;-2.750;2023-05-07T06:44:56;6.65;;;3.40;;
75620;SDS011;64574;48.506;-2.750;2023-05-07T06:47:21;6.03;;;3.10;;
75620;SDS011;64574;48.506;-2.750;2023-05-07T06:49:47;8.00;;;3.90;;
75620;SDS011;64574;48.506;-2.750;2023-05-07T06:52:13;7.20;;;3.90;;
75620;SDS011;64574;48.506;-2.750;2023-05-07T06:54:38;7.38;;;4.03;;
75620;SDS011;64574;48.506;-2.750;2023-05-07T06:57:04;8.13;;;4.68;;
75620;SDS011;64574;48.506;-2.750;2023-05-07T06:59:29;8.80;;;3.72;;
75620;SDS011;64574;48.506;-2.750;2023-05-07T07:01:55;8.07;;;4.60;;
75620;SDS011;64574;48.506;-2.750;2023-05-07T07:04:21;10.32;;;4.60;;
75620;SDS011;64574;48.506;-2.750;2023-05-07T07:09:13;9.52;;;4.53;;
75620;SDS011;64574;48.506;-2.750;2023-05-07T07:11:39;11.05;;;5.35;;
75620;SDS011;64574;48.506;-2.750;2023-05-07T07:14:05;12.02;;;5.03;;
75620;SDS011;64574;48.506;-2.750;2023-05-07T07:16:30;10.48;;;5.57;;
75620;SDS011;64574;48.506;-2.750;2023-05-07T07:18:56;12.18;;;5.63;;
75620;SDS011;64574;48.506;-2.750;2023-05-07T07:21:22;12.30;;;5.30;;
75620;SDS011;64574;48.506;-2.750;2023-05-07T07:23:47;9.10;;;4.72;;
75620;SDS011;64574;48.506;-2.750;2023-05-07T07:26:13;11.95;;;5.47;;
75620;SDS011;64574;48.506;-2.750;2023-05-07T07:28:42;9.05;;;4.88;;
75620;SDS011;64574;48.506;-2.750;2023-05-07T07:31:09;12.50;;;5.72;;
75620;SDS011;64574;48.506;-2.750;2023-05-07T07:33:34;10.75;;;5.55;;
75620;SDS011;64574;48.506;-2.750;2023-05-07T07:36:00;14.70;;;6.47;;
75620;SDS011;64574;48.506;-2.750;2023-05-07T07:38:25;12.23;;;5.28;;
75620;SDS011;64574;48.506;-2.750;2023-05-07T07:40:51;12.93;;;5.45;;
75620;SDS011;64574;48.506;-2.750;2023-05-07T07:43:17;11.88;;;5.20;;
75620;SDS011;64574;48.506;-2.750;2023-05-07T07:45:42;11.75;;;5.13;;
75620;SDS011;64574;48.506;-2.750;2023-05-07T07:48:08;11.07;;;4.85;;
75620;SDS011;64574;48.506;-2.750;2023-05-07T07:50:34;17.92;;;6.30;;
75620;SDS011;64574;48.506;-2.750;2023-05-07T07:53:00;15.35;;;5.50;;
75620;SDS011;64574;48.506;-2.750;2023-05-07T07:55:25;12.93;;;5.35;;
75620;SDS011;64574;48.506;-2.750;2023-05-07T07:57:52;15.93;;;5.70;;
75620;SDS011;64574;48.506;-2.750;2023-05-07T08:00:17;12.80;;;5.50;;
75620;SDS011;64574;48.506;-2.750;2023-05-07T08:02:43;14.57;;;6.03;;
75620;SDS011;64574;48.506;-2.750;2023-05-07T08:05:09;12.15;;;5.75;;
75620;SDS011;64574;48.506;-2.750;2023-05-07T08:07:34;11.93;;;4.97;;
75620;SDS011;64574;48.506;-2.750;2023-05-07T08:10:00;12.50;;;5.38;;
75620;SDS011;64574;48.506;-2.750;2023-05-07T08:12:27;15.15;;;5.95;;
75620;SDS011;64574;48.506;-2.750;2023-05-07T08:14:52;17.27;;;6.30;;
75620;SDS011;64574;48.506;-2.750;2023-05-07T08:17:18;15.30;;;6.43;;
75620;SDS011;64574;48.506;-2.750;2023-05-07T08:19:44;16.65;;;6.75;;
75620;SDS011;64574;48.506;-2.750;2023-05-07T08:22:09;12.85;;;4.97;;
75620;SDS011;64574;48.506;-2.750;2023-05-07T08:24:35;14.38;;;5.45;;
75620;SDS011;64574;48.506;-2.750;2023-05-07T08:27:01;11.63;;;4.88;;
75620;SDS011;64574;48.506;-2.750;2023-05-07T08:29:27;11.13;;;4.30;;
75620;SDS011;64574;48.506;-2.750;2023-05-07T08:31:53;14.20;;;4.60;;
75620;SDS011;64574;48.506;-2.750;2023-05-07T08:34:20;11.80;;;4.22;;
75620;SDS011;64574;48.506;-2.750;2023-05-07T08:36:46;14.85;;;3.75;;
75620;SDS011;64574;48.506;-2.750;2023-05-07T08:39:13;14.18;;;4.35;;
75620;SDS011;64574;48.506;-2.750;2023-05-07T08:41:40;14.55;;;3.60;;
75620;SDS011;64574;48.506;-2.750;2023-05-07T08:44:11;17.02;;;4.85;;
75620;SDS011;64574;48.506;-2.750;2023-05-07T08:46:39;10.68;;;3.90;;
75620;SDS011;64574;48.506;-2.750;2023-05-07T08:49:05;12.38;;;3.70;;
75620;SDS011;64574;48.506;-2.750;2023-05-07T08:51:30;9.27;;;3.40;;
75620;SDS011;64574;48.506;-2.750;2023-05-07T08:53:56;13.45;;;4.82;;
75620;SDS011;64574;48.506;-2.750;2023-05-07T08:56:22;14.48;;;4.05;;
75620;SDS011;64574;48.506;-2.750;2023-05-07T08:58:48;15.07;;;4.75;;
75620;SDS011;64574;48.506;-2.750;2023-05-07T09:01:15;14.77;;;3.70;;
75620;SDS011;64574;48.506;-2.750;2023-05-07T09:03:44;14.50;;;4.15;;
75620;SDS011;64574;48.506;-2.750;2023-05-07T09:06:11;13.35;;;4.38;;
75620;SDS011;64574;48.506;-2.750;2023-05-07T09:08:37;12.65;;;3.70;;
75620;SDS011;64574;48.506;-2.750;2023-05-07T09:11:03;17.08;;;3.90;;
75620;SDS011;64574;48.506;-2.750;2023-05-07T09:13:29;10.63;;;3.60;;
75620;SDS011;64574;48.506;-2.750;2023-05-07T09:15:55;8.45;;;3.83;;
75620;SDS011;64574;48.506;-2.750;2023-05-07T09:18:21;13.35;;;3.45;;
75620;SDS011;64574;48.506;-2.750;2023-05-07T09:20:48;10.40;;;3.80;;
75620;SDS011;64574;48.506;-2.750;2023-05-07T09:23:14;16.45;;;4.60;;
75620;SDS011;64574;48.506;-2.750;2023-05-07T09:25:40;11.55;;;3.70;;
75620;SDS011;64574;48.506;-2.750;2023-05-07T09:28:05;11.68;;;4.20;;
75620;SDS011;64574;48.506;-2.750;2023-05-07T09:30:32;14.48;;;4.35;;
75620;SDS011;64574;48.506;-2.750;2023-05-07T09:32:59;12.50;;;3.78;;
75620;SDS011;64574;48.506;-2.750;2023-05-07T09:35:26;13.20;;;2.72;;
75620;SDS011;64574;48.506;-2.750;2023-05-07T09:37:56;8.60;;;3.17;;
75620;SDS011;64574;48.506;-2.750;2023-05-07T09:40:27;10.65;;;3.25;;
75620;SDS011;64574;48.506;-2.750;2023-05-07T09:42:54;7.45;;;2.58;;
75620;SDS011;64574;48.506;-2.750;2023-05-07T09:45:27;8.57;;;2.35;;
75620;SDS011;64574;48.506;-2.750;2023-05-07T09:50:22;7.72;;;2.28;;
75620;SDS011;64574;48.506;-2.750;2023-05-07T09:52:52;9.02;;;2.58;;
75620;SDS011;64574;48.506;-2.750;2023-05-07T09:55:20;8.98;;;3.03;;
75620;SDS011;64574;48.506;-2.750;2023-05-07T09:57:47;11.05;;;2.50;;
75620;SDS011;64574;48.506;-2.750;2023-05-07T10:00:21;9.82;;;2.70;;
75620;SDS011;64574;48.506;-2.750;2023-05-07T10:02:48;8.95;;;2.67;;
75620;SDS011;64574;48.506;-2.750;2023-05-07T10:05:17;13.23;;;3.45;;
75620;SDS011;64574;48.506;-2.750;2023-05-07T10:07:45;11.73;;;2.83;;
75620;SDS011;64574;48.506;-2.750;2023-05-07T10:10:11;7.78;;;3.03;;
75620;SDS011;64574;48.506;-2.750;2023-05-07T10:12:37;10.82;;;3.80;;
75620;SDS011;64574;48.506;-2.750;2023-05-07T10:15:05;8.05;;;2.70;;
75620;SDS011;64574;48.506;-2.750;2023-05-07T10:17:39;8.80;;;3.10;;
75620;SDS011;64574;48.506;-2.750;2023-05-07T10:20:05;10.63;;;2.83;;
75620;SDS011;64574;48.506;-2.750;2023-05-07T10:22:38;9.77;;;2.75;;
75620;SDS011;64574;48.506;-2.750;2023-05-07T10:25:29;17.00;;;4.20;;
75620;SDS011;64574;48.506;-2.750;2023-05-07T10:27:57;10.10;;;3.45;;
75620;SDS011;64574;48.506;-2.750;2023-05-07T10:33:03;10.95;;;3.08;;
75620;SDS011;64574;48.506;-2.750;2023-05-07T10:35:32;10.95;;;3.20;;
75620;SDS011;64574;48.506;-2.750;2023-05-07T10:38:06;8.68;;;2.72;;
75620;SDS011;64574;48.506;-2.750;2023-05-07T10:40:32;9.40;;;2.60;;
75620;SDS011;64574;48.506;-2.750;2023-05-07T10:42:59;6.35;;;2.65;;
75620;SDS011;64574;48.506;-2.750;2023-05-07T10:45:26;14.85;;;3.38;;
75620;SDS011;64574;48.506;-2.750;2023-05-07T10:48:11;18.38;;;2.80;;
75620;SDS011;64574;48.506;-2.750;2023-05-07T10:50:41;10.65;;;3.00;;
75620;SDS011;64574;48.506;-2.750;2023-05-07T10:55:49;6.32;;;2.50;;
75620;SDS011;64574;48.506;-2.750;2023-05-07T11:03:25;8.18;;;2.80;;
75620;SDS011;64574;48.506;-2.750;2023-05-07T11:11:19;5.75;;;2.53;;
75620;SDS011;64574;48.506;-2.750;2023-05-07T11:14:04;8.48;;;2.83;;
75620;SDS011;64574;48.506;-2.750;2023-05-07T11:16:30;5.40;;;2.08;;
75620;SDS011;64574;48.506;-2.750;2023-05-07T11:18:58;6.35;;;2.22;;
75620;SDS011;64574;48.506;-2.750;2023-05-07T11:21:37;6.55;;;2.63;;
75620;SDS011;64574;48.506;-2.750;2023-05-07T11:26:30;10.38;;;2.88;;
75620;SDS011;64574;48.506;-2.750;2023-05-07T11:29:17;10.10;;;2.88;;
75620;SDS011;64574;48.506;-2.750;2023-05-07T11:31:49;12.95;;;3.78;;
75620;SDS011;64574;48.506;-2.750;2023-05-07T11:34:16;9.85;;;2.95;;
75620;SDS011;64574;48.506;-2.750;2023-05-07T11:36:50;9.07;;;3.25;;
75620;SDS011;64574;48.506;-2.750;2023-05-07T11:41:56;9.80;;;2.80;;
75620;SDS011;64574;48.506;-2.750;2023-05-07T11:44:22;8.77;;;3.05;;
75620;SDS011;64574;48.506;-2.750;2023-05-07T11:46:48;9.60;;;2.90;;
75620;SDS011;64574;48.506;-2.750;2023-05-07T11:49:14;8.60;;;2.72;;
75620;SDS011;64574;48.506;-2.750;2023-05-07T11:51:40;9.05;;;2.90;;
75620;SDS011;64574;48.506;-2.750;2023-05-07T11:54:07;9.50;;;3.15;;
75620;SDS011;64574;48.506;-2.750;2023-05-07T11:56:37;11.07;;;3.05;;
75620;SDS011;64574;48.506;-2.750;2023-05-07T11:59:03;8.07;;;2.95;;
75620;SDS011;64574;48.506;-2.750;2023-05-07T12:01:29;10.35;;;2.92;;
75620;SDS011;64574;48.506;-2.750;2023-05-07T12:03:55;13.13;;;3.30;;
75620;SDS011;64574;48.506;-2.750;2023-05-07T12:06:20;6.35;;;3.28;;
75620;SDS011;64574;48.506;-2.750;2023-05-07T12:08:46;9.05;;;2.90;;
75620;SDS011;64574;48.506;-2.750;2023-05-07T12:11:16;8.98;;;3.15;;
75620;SDS011;64574;48.506;-2.750;2023-05-07T12:13:47;10.55;;;3.20;;
75620;SDS011;64574;48.506;-2.750;2023-05-07T12:16:12;8.02;;;2.83;;
75620;SDS011;64574;48.506;-2.750;2023-05-07T12:18:39;10.75;;;3.88;;
75620;SDS011;64574;48.506;-2.750;2023-05-07T12:21:05;11.73;;;3.38;;
75620;SDS011;64574;48.506;-2.750;2023-05-07T12:23:32;12.35;;;3.67;;
75620;SDS011;64574;48.506;-2.750;2023-05-07T12:25:59;11.60;;;3.85;;
75620;SDS011;64574;48.506;-2.750;2023-05-07T12:28:25;11.23;;;3.55;;
75620;SDS011;64574;48.506;-2.750;2023-05-07T12:30:50;11.77;;;3.22;;
75620;SDS011;64574;48.506;-2.750;2023-05-07T12:33:17;8.05;;;2.85;;
75620;SDS011;64574;48.506;-2.750;2023-05-07T12:35:46;8.32;;;3.00;;
75620;SDS011;64574;48.506;-2.750;2023-05-07T12:38:14;7.60;;;2.92;;
75620;SDS011;64574;48.506;-2.750;2023-05-07T12:40:43;10.10;;;2.53;;
75620;SDS011;64574;48.506;-2.750;2023-05-07T12:43:33;11.07;;;2.70;;
75620;SDS011;64574;48.506;-2.750;2023-05-07T12:46:01;12.05;;;2.90;;
75620;SDS011;64574;48.506;-2.750;2023-05-07T12:48:28;9.35;;;3.05;;
75620;SDS011;64574;48.506;-2.750;2023-05-07T12:50:59;13.73;;;3.95;;
75620;SDS011;64574;48.506;-2.750;2023-05-07T12:53:26;6.88;;;2.95;;
75620;SDS011;64574;48.506;-2.750;2023-05-07T12:55:55;11.43;;;2.70;;
75620;SDS011;64574;48.506;-2.750;2023-05-07T13:00:51;9.45;;;2.63;;
75620;SDS011;64574;48.506;-2.750;2023-05-07T13:03:38;8.35;;;2.85;;
75620;SDS011;64574;48.506;-2.750;2023-05-07T13:06:07;8.73;;;2.80;;
75620;SDS011;64574;48.506;-2.750;2023-05-07T13:08:40;8.32;;;2.17;;
75620;SDS011;64574;48.506;-2.750;2023-05-07T13:11:08;8.50;;;2.08;;
75620;SDS011;64574;48.506;-2.750;2023-05-07T13:13:35;6.60;;;2.40;;
75620;SDS011;64574;48.506;-2.750;2023-05-07T13:16:03;7.68;;;2.33;;
75620;SDS011;64574;48.506;-2.750;2023-05-07T13:18:30;7.20;;;2.42;;
75620;SDS011;64574;48.506;-2.750;2023-05-07T13:20:57;7.70;;;2.25;;
75620;SDS011;64574;48.506;-2.750;2023-05-07T13:23:23;8.82;;;2.70;;
75620;SDS011;64574;48.506;-2.750;2023-05-07T13:25:50;9.00;;;2.40;;
75620;SDS011;64574;48.506;-2.750;2023-05-07T13:28:17;7.65;;;2.88;;
75620;SDS011;64574;48.506;-2.750;2023-05-07T13:30:43;5.32;;;2.38;;
75620;SDS011;64574;48.506;-2.750;2023-05-07T13:33:09;8.88;;;2.53;;
75620;SDS011;64574;48.506;-2.750;2023-05-07T13:35:35;10.43;;;3.40;;
75620;SDS011;64574;48.506;-2.750;2023-05-07T13:38:00;8.38;;;2.20;;
75620;SDS011;64574;48.506;-2.750;2023-05-07T13:40:26;9.60;;;2.47;;
75620;SDS011;64574;48.506;-2.750;2023-05-07T13:42:53;7.15;;;2.40;;
75620;SDS011;64574;48.506;-2.750;2023-05-07T13:45:19;8.35;;;2.72;;
75620;SDS011;64574;48.506;-2.750;2023-05-07T13:47:45;7.88;;;2.38;;
75620;SDS011;64574;48.506;-2.750;2023-05-07T13:50:11;10.88;;;3.08;;
75620;SDS011;64574;48.506;-2.750;2023-05-07T13:52:40;4.80;;;2.08;;
75620;SDS011;64574;48.506;-2.750;2023-05-07T13:55:08;5.68;;;2.20;;
75620;SDS011;64574;48.506;-2.750;2023-05-07T13:57:35;14.48;;;2.85;;
75620;SDS011;64574;48.506;-2.750;2023-05-07T14:00:01;7.50;;;2.85;;
75620;SDS011;64574;48.506;-2.750;2023-05-07T14:02:29;7.80;;;2.13;;
75620;SDS011;64574;48.506;-2.750;2023-05-07T14:04:55;6.47;;;2.30;;
75620;SDS011;64574;48.506;-2.750;2023-05-07T14:07:21;6.22;;;2.80;;
75620;SDS011;64574;48.506;-2.750;2023-05-07T14:09:46;8.93;;;2.35;;
75620;SDS011;64574;48.506;-2.750;2023-05-07T14:12:12;6.80;;;3.08;;
75620;SDS011;64574;48.506;-2.750;2023-05-07T14:14:37;11.25;;;2.88;;
75620;SDS011;64574;48.506;-2.750;2023-05-07T14:17:03;6.57;;;2.35;;
75620;SDS011;64574;48.506;-2.750;2023-05-07T14:19:29;9.20;;;2.78;;
75620;SDS011;64574;48.506;-2.750;2023-05-07T14:21:54;10.40;;;3.45;;
75620;SDS011;64574;48.506;-2.750;2023-05-07T14:24:20;9.82;;;2.72;;
75620;SDS011;64574;48.506;-2.750;2023-05-07T14:26:46;8.70;;;2.60;;
75620;SDS011;64574;48.506;-2.750;2023-05-07T14:29:11;11.20;;;3.40;;
75620;SDS011;64574;48.506;-2.750;2023-05-07T14:31:37;9.57;;;2.70;;
75620;SDS011;64574;48.506;-2.750;2023-05-07T14:34:02;9.35;;;2.42;;
75620;SDS011;64574;48.506;-2.750;2023-05-07T14:36:29;7.43;;;2.45;;
75620;SDS011;64574;48.506;-2.750;2023-05-07T14:38:56;10.05;;;3.08;;
75620;SDS011;64574;48.506;-2.750;2023-05-07T14:41:24;5.85;;;2.33;;
75620;SDS011;64574;48.506;-2.750;2023-05-07T14:43:50;8.27;;;2.35;;
75620;SDS011;64574;48.506;-2.750;2023-05-07T14:46:16;9.25;;;2.55;;
75620;SDS011;64574;48.506;-2.750;2023-05-07T14:48:45;10.43;;;3.00;;
75620;SDS011;64574;48.506;-2.750;2023-05-07T14:51:11;10.20;;;3.10;;
75620;SDS011;64574;48.506;-2.750;2023-05-07T14:53:37;7.90;;;2.63;;